Lysite, Wyoming
Current Conditions -  °F | °C
As of 6:35 PM on Tuesday 27 Jan 2015 (Local Time) from KTBX Reporting Station
Overcast Overcast  
Wind Chill: 36°   Ceiling: 9000
Heat Index: 41°   Visibility: 10mi
Dew Point: 23°   Wind: 8mph
Humidity: 49%   Direction: 170°S
Pressure: 30.13"   Gusts: NA
Location:  43.27°N, 107.69°W
Report Text: KTBX 280135Z AUTO 17007KT 10SM OVC090 05/M05 A3013 RMK AO2
Loading
Personal Weather Stations






























Interactive Weather Map New forecast layout! Learn more

10-Day Weather Forecast

Advertisements
Track Severe Weather on mobile